createdAt,value
2023-11-01T00:00:01.786Z,99.76
2023-11-01T00:05:01.941Z,99.4
2023-11-01T00:10:02.283Z,99.4
2023-11-01T00:15:03.863Z,97.59
2023-11-01T00:20:01.900Z,99.37
2023-11-01T00:25:01.805Z,99.43
2023-11-01T00:30:01.881Z,99.53
2023-11-01T00:35:02.176Z,99.66
2023-11-01T00:40:02.147Z,99.88
2023-11-01T00:45:01.776Z,99.56
2023-11-01T00:50:01.966Z,97.96
2023-11-01T00:55:02.127Z,97.64
2023-11-01T01:00:01.970Z,97.47
2023-11-01T01:05:01.976Z,97.29
2023-11-01T01:10:02.251Z,97.41
2023-11-01T01:15:02.233Z,97.75
2023-11-01T01:20:01.713Z,97.89
2023-11-01T01:25:01.335Z,98.13
2023-11-01T01:30:01.719Z,99.87
2023-11-01T01:35:01.396Z,99.63
2023-11-01T01:40:01.779Z,99.67
2023-11-01T01:45:02.102Z,99.75
2023-11-01T01:50:02.100Z,98.19
2023-11-01T01:55:01.509Z,98.34
2023-11-01T02:00:02.065Z,99.97
2023-11-01T02:05:02.416Z,99.84
2023-11-01T02:10:02.169Z,99.73
2023-11-01T02:15:02.352Z,99.8
2023-11-01T02:20:01.627Z,99.42
2023-11-01T02:25:01.729Z,99.63
2023-11-01T02:30:02.059Z,99.01
2023-11-01T02:35:02.032Z,98.72
2023-11-01T02:40:02.175Z,98.79
2023-11-01T02:45:02.016Z,98.56
2023-11-01T02:50:01.294Z,98.63
2023-11-01T02:55:01.800Z,97.07
2023-11-01T03:00:02.049Z,96.39
2023-11-01T03:05:01.993Z,96.43
2023-11-01T03:10:02.114Z,96.94
2023-11-01T03:15:01.903Z,97.48
2023-11-01T03:20:01.400Z,97.74
2023-11-01T03:25:01.648Z,97.95
2023-11-01T03:30:02.059Z,97.87
2023-11-01T03:35:01.968Z,99.92
2023-11-01T03:40:01.975Z,98.15
2023-11-01T03:45:02.406Z,99.74
2023-11-01T03:50:01.683Z,98.37
2023-11-01T03:55:02.016Z,100.07
2023-11-01T04:00:02.047Z,99.88
2023-11-01T04:05:02.017Z,98.31
2023-11-01T04:10:01.932Z,98.25
2023-11-01T04:15:02.452Z,97.93
2023-11-01T04:20:01.728Z,100.01
2023-11-01T04:25:01.780Z,98.01
2023-11-01T04:30:02.218Z,98.04
2023-11-01T04:35:01.400Z,98.01
2023-11-01T04:40:02.070Z,97.91
2023-11-01T04:45:02.249Z,98.3
2023-11-01T04:50:01.896Z,98.15
2023-11-01T04:55:02.052Z,99.89
2023-11-01T05:00:01.598Z,99.75
2023-11-01T05:05:01.930Z,99.66
2023-11-01T05:10:02.108Z,99.19
2023-11-01T05:15:01.551Z,98.89
2023-11-01T05:20:01.547Z,98.82
2023-11-01T05:25:01.626Z,98.82
2023-11-01T05:30:02.005Z,98.38
2023-11-01T05:35:02.217Z,96.28
2023-11-01T05:40:01.329Z,98.14
2023-11-01T05:45:01.915Z,98.57
2023-11-01T05:50:02.145Z,98.85
2023-11-01T05:55:11.075Z,96.51
2023-11-01T06:00:01.763Z,98.6
2023-11-01T06:05:01.415Z,98.59
2023-11-01T06:10:01.930Z,97.8
2023-11-01T06:15:02.195Z,98.37
2023-11-01T06:20:01.452Z,95.6
2023-11-01T06:25:01.309Z,97.95
2023-11-01T06:30:01.711Z,97.76
2023-11-01T06:35:02.050Z,97.38
2023-11-01T06:40:01.567Z,96.91
2023-11-01T06:45:01.797Z,96.83
2023-11-01T06:50:02.219Z,97.05
2023-11-01T06:55:01.334Z,96.85
2023-11-01T07:00:01.992Z,96.47
2023-11-01T07:05:01.430Z,96.63
2023-11-01T07:10:02.045Z,96.42
2023-11-01T07:15:01.692Z,96.31
2023-11-01T07:20:02.090Z,96.5
2023-11-01T07:25:01.264Z,96.43
2023-11-01T07:30:01.692Z,96.71
2023-11-01T07:35:01.979Z,95.86
2023-11-01T07:40:02.320Z,95.6
2023-11-01T07:45:02.287Z,95.18
2023-11-01T07:50:01.550Z,95.28
2023-11-01T07:55:01.999Z,95.28
2023-11-01T08:00:02.190Z,95.07
2023-11-01T08:05:02.032Z,94.99
2023-11-01T08:10:02.126Z,95.18
2023-11-01T08:15:01.654Z,94.73
2023-11-01T08:20:03.087Z,94.78
2023-11-01T08:25:01.275Z,94.22
2023-11-01T08:30:01.851Z,94.18
2023-11-01T08:35:01.890Z,93.86
2023-11-01T08:40:01.932Z,93.95
2023-11-01T08:45:02.083Z,93.81
2023-11-01T08:50:02.238Z,93.74
2023-11-01T08:55:01.587Z,93.09
2023-11-01T09:00:01.707Z,91.99
2023-11-01T09:05:02.175Z,92.13
2023-11-01T09:10:02.697Z,91.63
2023-11-01T09:15:01.986Z,91.77
2023-11-01T09:20:02.254Z,91.87
2023-11-01T09:25:01.374Z,93.46
2023-11-01T09:30:01.892Z,92.86
2023-11-01T09:35:01.984Z,94.43
2023-11-01T09:40:01.994Z,94.08
2023-11-01T09:45:02.285Z,93.79
2023-11-01T09:50:01.963Z,94.21
2023-11-01T09:55:01.823Z,95.15
2023-11-01T10:00:01.598Z,96.24
2023-11-01T10:05:02.362Z,96.36
2023-11-01T10:10:01.385Z,96.83
2023-11-01T10:15:01.844Z,96.51
2023-11-01T10:20:04.231Z,96.15
2023-11-01T10:25:01.468Z,96.23
2023-11-01T10:30:01.832Z,96.14
2023-11-01T10:35:01.982Z,96.31
2023-11-01T10:40:02.221Z,96.31
2023-11-01T10:45:01.371Z,95.99
2023-11-01T10:50:01.755Z,95.32
2023-11-01T10:55:01.870Z,94.03
2023-11-01T11:00:02.248Z,92.44
2023-11-01T11:05:02.693Z,92.44
2023-11-01T11:10:01.855Z,91.55
2023-11-01T11:15:02.215Z,91.58
2023-11-01T11:20:01.496Z,90.74
2023-11-01T11:25:01.581Z,89.52
2023-11-01T11:30:01.915Z,89.52
2023-11-01T11:35:02.021Z,88.95
2023-11-01T11:40:01.350Z,89.4
2023-11-01T11:45:01.874Z,90.02
2023-11-01T11:50:01.638Z,91.28
2023-11-01T11:55:01.887Z,92.15
2023-11-01T12:00:02.125Z,92.72
2023-11-01T12:05:01.376Z,92.31
2023-11-01T12:10:01.372Z,89.83
2023-11-01T12:15:02.554Z,88.83
2023-11-01T12:20:02.272Z,88.14
2023-11-01T12:25:01.359Z,88.49
2023-11-01T12:30:02.567Z,87.57
2023-11-01T12:35:01.430Z,89.23
2023-11-01T12:40:01.849Z,90.9
2023-11-01T12:45:01.512Z,91.81
2023-11-01T12:50:01.997Z,92.27
2023-11-01T12:55:02.045Z,92.56
2023-11-01T13:00:01.605Z,92.03
2023-11-01T13:05:02.090Z,91.23
2023-11-01T13:10:02.241Z,91.19
2023-11-01T13:15:01.569Z,90.12
2023-11-01T13:20:01.894Z,89.96
2023-11-01T13:25:01.866Z,89.67
2023-11-01T13:30:01.417Z,89.94
2023-11-01T13:35:01.890Z,90.64
2023-11-01T13:40:02.112Z,91.01
2023-11-01T13:45:02.059Z,91.35
2023-11-01T13:50:01.366Z,91.58
2023-11-01T13:55:01.611Z,91.65
2023-11-01T14:00:02.019Z,91.49
2023-11-01T14:05:01.389Z,91.43
2023-11-01T14:10:01.646Z,91.42
2023-11-01T14:15:02.224Z,91.45
2023-11-01T14:20:01.694Z,92.13
2023-11-01T14:25:01.539Z,92.64
2023-11-01T14:30:02.155Z,92.48
2023-11-01T14:35:01.336Z,92.34
2023-11-01T14:40:01.954Z,92.26
2023-11-01T14:45:02.151Z,92.41
2023-11-01T14:50:01.540Z,92.46
2023-11-01T14:55:01.857Z,92.46
2023-11-01T15:00:02.247Z,92.09
2023-11-01T15:05:01.539Z,92.03
2023-11-01T15:10:01.971Z,91.64
2023-11-01T15:15:01.333Z,91.55
2023-11-01T15:20:01.862Z,90.61
2023-11-01T15:25:02.120Z,90.62
2023-11-01T15:30:02.360Z,89.55
2023-11-01T15:35:01.744Z,89.09
2023-11-01T15:40:04.306Z,88.66
2023-11-01T15:45:01.776Z,87.52
2023-11-01T15:50:02.292Z,86.89
2023-11-01T15:55:01.605Z,85.73
2023-11-01T16:00:01.957Z,85.5
2023-11-01T16:05:01.462Z,84.41
2023-11-01T16:10:01.593Z,84.27
2023-11-01T16:15:02.134Z,83.44
2023-11-01T16:20:03.214Z,84.16
2023-11-01T16:25:02.124Z,84.36
2023-11-01T16:30:02.330Z,82.92
2023-11-01T16:35:01.737Z,82.86
2023-11-01T16:40:01.410Z,83.47
2023-11-01T16:45:01.870Z,83.76
2023-11-01T16:50:02.051Z,84.48
2023-11-01T16:55:01.532Z,84.78
2023-11-01T17:00:02.213Z,85.47
2023-11-01T17:05:01.462Z,85.87
2023-11-01T17:10:02.090Z,86.84
2023-11-01T17:15:01.401Z,90.4
2023-11-01T17:20:01.448Z,91.76
2023-11-01T17:25:02.144Z,93.69
2023-11-01T17:30:01.576Z,94.73
2023-11-01T17:35:02.242Z,95
2023-11-01T17:40:01.698Z,94.85
2023-11-01T17:45:01.350Z,95.42
2023-11-01T17:50:01.761Z,94.47
2023-11-01T17:55:02.165Z,94.54
2023-11-01T18:00:01.620Z,95.11
2023-11-01T18:05:02.119Z,94.83
2023-11-01T18:10:01.570Z,93.31
2023-11-01T18:15:02.206Z,93.5
2023-11-01T18:20:05.117Z,94.09
2023-11-01T18:25:01.483Z,93.89
2023-11-01T18:30:02.171Z,94.34
2023-11-01T18:35:01.376Z,94.51
2023-11-01T18:40:01.837Z,94.1
2023-11-01T18:45:01.977Z,94.11
2023-11-01T18:50:02.211Z,94.22
2023-11-01T18:55:01.529Z,94.13
2023-11-01T19:00:02.051Z,94.08
2023-11-01T19:05:01.644Z,93.3
2023-11-01T19:10:01.699Z,92.92
2023-11-01T19:15:02.220Z,92.64
2023-11-01T19:20:02.221Z,92.99
2023-11-01T19:25:01.590Z,92.65
2023-11-01T19:30:01.447Z,92.93
2023-11-01T19:35:02.171Z,93.25
2023-11-01T19:40:01.468Z,93.71
2023-11-01T19:45:01.690Z,94.36
2023-11-01T19:50:01.706Z,94.61
2023-11-01T19:55:01.555Z,94.29
2023-11-01T20:00:01.855Z,94.38
2023-11-01T20:05:01.577Z,94.4
2023-11-01T20:10:01.807Z,94.29
2023-11-01T20:15:01.881Z,94.44
2023-11-01T20:20:02.069Z,94.12
2023-11-01T20:25:01.922Z,94.35
2023-11-01T20:30:02.293Z,93.73
2023-11-01T20:35:02.011Z,93.16
2023-11-01T20:40:01.355Z,93.22
2023-11-01T20:45:02.210Z,93.16
2023-11-01T20:50:02.061Z,92.83
2023-11-01T20:55:01.776Z,92.58
2023-11-01T21:00:02.385Z,93.04
2023-11-01T21:05:01.672Z,92.35
2023-11-01T21:10:01.981Z,92.28
2023-11-01T21:15:01.618Z,91.72
2023-11-01T21:20:02.157Z,91.64
2023-11-01T21:25:01.545Z,91.06
2023-11-01T21:30:02.304Z,91
2023-11-01T21:35:01.328Z,90.73
2023-11-01T21:40:02.037Z,90.09
2023-11-01T21:45:01.683Z,89.99
2023-11-01T21:50:01.731Z,89.73
2023-11-01T21:55:01.369Z,90
2023-11-01T22:00:02.484Z,90.26
2023-11-01T22:05:01.566Z,90.72
2023-11-01T22:10:01.490Z,91.25
2023-11-01T22:15:01.806Z,92.02
2023-11-01T22:20:01.489Z,92.03
2023-11-01T22:25:02.194Z,91.73
2023-11-01T22:30:02.158Z,92.48
2023-11-01T22:35:01.733Z,92.98
2023-11-01T22:40:02.073Z,93.14
2023-11-01T22:45:01.520Z,93.52
2023-11-01T22:50:02.011Z,93.65
2023-11-01T22:55:01.816Z,93.54
2023-11-01T23:00:02.888Z,93.41
2023-11-01T23:05:02.998Z,93.09
2023-11-01T23:10:02.528Z,91.93
2023-11-01T23:15:02.214Z,91.19
2023-11-01T23:20:01.771Z,90.68
2023-11-01T23:25:01.414Z,90.7
2023-11-01T23:30:01.935Z,90.86
2023-11-01T23:35:01.341Z,90.55
2023-11-01T23:40:01.639Z,90.12
2023-11-01T23:45:02.224Z,89.6
2023-11-01T23:50:01.922Z,89.95
2023-11-01T23:55:02.007Z,89.95
